Time;durP1;ratioP1;P1;durP2;ratioP2;P2;SDS_P1;SDS_P2;PMS_P1;PMS_P2;Temp;Humidity;BMP_temperature;BMP_pressure;BME280_temperature;BME280_humidity;BME280_pressure;Samples;Min_cycle;Max_cycle;Signal;HPM_P1;HPM_P2
2024/01/30 00:01:54;;;;;;;11.07;6.85;;;;;;;;;;5068650;28;20020;-76
2024/01/30 00:04:20;;;;;;;10.25;6.60;;;;;;;;;;5071435;28;20535;-76
2024/01/30 00:06:46;;;;;;;12.10;7.13;;;;;;;;;;5063880;28;20025;-76
2024/01/30 00:09:12;;;;;;;10.68;6.55;;;;;;;;;;5073383;28;20044;-75
2024/01/30 00:11:38;;;;;;;12.15;6.20;;;;;;;;;;5072142;28;20028;-76
2024/01/30 00:14:04;;;;;;;12.25;7.20;;;;;;;;;;5069600;28;20029;-76
2024/01/30 00:16:31;;;;;;;9.55;6.40;;;;;;;;;;5066335;28;20020;-76
2024/01/30 00:18:57;;;;;;;12.07;6.65;;;;;;;;;;5072136;28;20017;-75
2024/01/30 00:21:23;;;;;;;10.65;6.28;;;;;;;;;;5071274;28;20494;-73
2024/01/30 00:23:50;;;;;;;11.95;5.63;;;;;;;;;;5071885;28;20028;-75
2024/01/30 00:26:16;;;;;;;10.48;6.10;;;;;;;;;;5072437;28;20059;-75
2024/01/30 00:28:42;;;;;;;13.32;6.28;;;;;;;;;;5078065;28;20442;-74
2024/01/30 00:31:12;;;;;;;10.95;5.90;;;;;;;;;;5080868;28;20016;-75
2024/01/30 00:33:38;;;;;;;10.57;6.47;;;;;;;;;;5078835;28;20345;-75
2024/01/30 00:36:04;;;;;;;10.43;5.97;;;;;;;;;;5080801;28;20393;-74
2024/01/30 00:38:30;;;;;;;10.25;5.80;;;;;;;;;;5079127;28;20033;-74
2024/01/30 00:40:56;;;;;;;12.00;6.53;;;;;;;;;;5081168;28;20031;-74
2024/01/30 00:43:24;;;;;;;10.32;6.03;;;;;;;;;;5080674;28;20470;-73
2024/01/30 00:45:51;;;;;;;15.93;6.10;;;;;;;;;;5081203;28;20492;-74
2024/01/30 00:48:18;;;;;;;10.95;5.97;;;;;;;;;;5066171;28;20044;-75
2024/01/30 00:50:44;;;;;;;10.60;6.63;;;;;;;;;;5079783;28;20017;-75
2024/01/30 00:53:10;;;;;;;10.70;5.70;;;;;;;;;;5080949;28;20141;-74
2024/01/30 00:55:36;;;;;;;12.57;5.80;;;;;;;;;;5069564;28;20032;-75
2024/01/30 00:58:02;;;;;;;10.88;6.70;;;;;;;;;;5070489;28;20020;-75
2024/01/30 01:00:29;;;;;;;14.57;6.47;;;;;;;;;;5071159;28;20032;-74
2024/01/30 01:02:55;;;;;;;12.45;6.55;;;;;;;;;;5070744;28;20453;-74
2024/01/30 01:05:22;;;;;;;15.15;7.15;;;;;;;;;;5069779;28;20801;-74
2024/01/30 01:07:48;;;;;;;13.80;6.63;;;;;;;;;;5066091;28;20029;-76
2024/01/30 01:10:15;;;;;;;9.68;5.72;;;;;;;;;;5071557;28;20031;-76
2024/01/30 01:12:41;;;;;;;7.82;5.22;;;;;;;;;;5069375;28;20028;-74
2024/01/30 01:15:11;;;;;;;10.27;5.72;;;;;;;;;;5071524;28;20419;-73
2024/01/30 01:17:37;;;;;;;8.33;5.63;;;;;;;;;;5063948;28;20028;-76
2024/01/30 01:20:05;;;;;;;11.18;5.90;;;;;;;;;;5070913;28;20254;-75
2024/01/30 01:22:31;;;;;;;7.85;5.38;;;;;;;;;;5070491;28;20028;-76
2024/01/30 01:24:57;;;;;;;10.35;5.82;;;;;;;;;;5064451;28;20527;-76
2024/01/30 01:27:24;;;;;;;8.80;5.55;;;;;;;;;;5071067;28;20492;-75
2024/01/30 01:29:50;;;;;;;10.10;6.28;;;;;;;;;;5069656;28;20500;-73
2024/01/30 01:32:16;;;;;;;8.68;5.53;;;;;;;;;;5070098;28;20068;-72
2024/01/30 01:34:42;;;;;;;9.90;5.97;;;;;;;;;;5068153;28;20810;-76
2024/01/30 01:37:08;;;;;;;8.43;5.55;;;;;;;;;;5071616;28;20016;-76
2024/01/30 01:39:34;;;;;;;9.98;5.65;;;;;;;;;;5072084;28;20038;-75
2024/01/30 01:42:00;;;;;;;9.82;5.50;;;;;;;;;;5071359;28;20031;-75
2024/01/30 01:44:28;;;;;;;11.20;5.80;;;;;;;;;;5069932;28;20020;-74
2024/01/30 01:46:55;;;;;;;9.07;5.03;;;;;;;;;;5058353;28;20385;-75
2024/01/30 01:49:22;;;;;;;10.85;5.45;;;;;;;;;;5068988;28;20070;-75
2024/01/30 01:51:48;;;;;;;10.27;5.53;;;;;;;;;;5065791;28;20024;-76
2024/01/30 01:54:15;;;;;;;12.90;5.45;;;;;;;;;;5070238;28;20029;-76
2024/01/30 01:56:42;;;;;;;8.05;5.30;;;;;;;;;;5069750;28;20358;-76
2024/01/30 01:59:08;;;;;;;9.30;5.13;;;;;;;;;;5069121;28;20060;-76
2024/01/30 02:01:35;;;;;;;12.07;6.68;;;;;;;;;;5062625;28;20016;-76
2024/01/30 02:04:01;;;;;;;9.23;5.10;;;;;;;;;;5069164;28;20473;-72
2024/01/30 02:06:27;;;;;;;8.57;5.13;;;;;;;;;;5069723;28;20477;-73
2024/01/30 02:08:54;;;;;;;10.20;5.65;;;;;;;;;;5070937;28;20028;-74
2024/01/30 02:11:20;;;;;;;10.30;5.10;;;;;;;;;;5070453;28;20024;-74
2024/01/30 02:13:47;;;;;;;9.05;5.68;;;;;;;;;;5067849;28;20101;-73
2024/01/30 02:16:13;;;;;;;9.68;5.45;;;;;;;;;;5068931;28;20465;-75
2024/01/30 02:18:43;;;;;;;8.38;5.07;;;;;;;;;;5069155;28;20032;-76
2024/01/30 02:21:09;;;;;;;11.45;6.13;;;;;;;;;;5069054;28;20029;-76
2024/01/30 02:23:35;;;;;;;9.20;5.70;;;;;;;;;;5059924;28;20024;-76
2024/01/30 02:26:01;;;;;;;10.00;5.57;;;;;;;;;;5066612;28;20070;-76
2024/01/30 02:28:27;;;;;;;10.27;5.65;;;;;;;;;;5068920;28;20040;-72
2024/01/30 02:30:53;;;;;;;10.10;5.65;;;;;;;;;;5070485;28;20079;-75
2024/01/30 02:33:21;;;;;;;11.60;6.38;;;;;;;;;;5062710;28;20032;-73
2024/01/30 02:35:47;;;;;;;12.15;5.57;;;;;;;;;;5064701;28;20021;-76
2024/01/30 02:38:13;;;;;;;12.93;5.47;;;;;;;;;;5069331;28;20036;-73
2024/01/30 02:40:39;;;;;;;9.43;5.80;;;;;;;;;;5073235;28;20529;-72
2024/01/30 02:43:05;;;;;;;8.63;5.53;;;;;;;;;;5069555;28;20017;-73
2024/01/30 02:45:31;;;;;;;8.13;5.20;;;;;;;;;;5069249;28;20127;-76
2024/01/30 02:47:57;;;;;;;9.85;5.43;;;;;;;;;;5065250;28;20025;-74
2024/01/30 02:50:24;;;;;;;8.52;5.40;;;;;;;;;;5063424;28;20542;-71
2024/01/30 02:52:50;;;;;;;9.70;5.90;;;;;;;;;;5066634;28;20372;-73
2024/01/30 02:55:19;;;;;;;10.35;6.35;;;;;;;;;;5068634;28;20466;-73
2024/01/30 02:57:45;;;;;;;10.52;6.18;;;;;;;;;;5065629;28;20057;-75
2024/01/30 03:00:11;;;;;;;17.15;8.50;;;;;;;;;;5067895;28;20028;-72
2024/01/30 03:02:37;;;;;;;12.50;7.22;;;;;;;;;;5069415;28;20047;-75
2024/01/30 03:05:04;;;;;;;13.82;6.75;;;;;;;;;;5067198;28;20477;-76
2024/01/30 03:07:30;;;;;;;12.13;6.75;;;;;;;;;;5064414;28;20048;-75
2024/01/30 03:09:56;;;;;;;13.18;6.50;;;;;;;;;;5068806;28;20495;-75
2024/01/30 03:12:23;;;;;;;10.25;6.38;;;;;;;;;;5068444;28;20526;-73
2024/01/30 03:14:52;;;;;;;9.70;5.95;;;;;;;;;;5068707;28;20020;-74
2024/01/30 03:17:18;;;;;;;13.25;7.40;;;1.80;99.90;;;;;;5063425;28;20032;-73
2024/01/30 03:19:43;;;;;;;11.55;6.28;;;1.60;99.90;;;;;;5072680;28;20232;-74
2024/01/30 03:22:09;;;;;;;10.55;6.60;;;1.50;99.90;;;;;;5073054;28;20043;-75
2024/01/30 03:24:35;;;;;;;11.70;7.10;;;1.40;99.90;;;;;;5066291;28;20047;-73
2024/01/30 03:27:01;;;;;;;9.73;6.55;;;1.40;99.90;;;;;;5072648;28;20071;-73
2024/01/30 03:29:26;;;;;;;11.00;7.05;;;1.40;99.90;;;;;;5068571;28;20508;-73
2024/01/30 03:31:52;;;;;;;11.25;6.25;;;1.30;99.90;;;;;;5065679;28;20100;-73
2024/01/30 03:34:17;;;;;;;9.68;6.47;;;1.30;99.90;;;;;;5064429;28;20462;-73
2024/01/30 03:36:43;;;;;;;11.43;6.60;;;1.30;99.90;;;;;;5086328;28;20032;-73
2024/01/30 03:39:09;;;;;;;10.55;6.68;;;1.40;99.90;;;;;;5073735;28;20053;-73
2024/01/30 03:41:34;;;;;;;11.13;6.47;;;1.40;99.90;;;;;;5074858;28;20028;-73
2024/01/30 03:44:00;;;;;;;10.25;6.57;;;1.40;99.90;;;;;;5072746;28;20082;-73
2024/01/30 03:46:26;;;;;;;11.88;6.78;;;1.40;99.90;;;;;;5071942;28;20036;-74
2024/01/30 03:48:51;;;;;;;12.30;6.78;;;1.40;99.90;;;;;;5072008;28;20029;-75
2024/01/30 03:51:17;;;;;;;9.88;6.32;;;1.40;99.90;;;;;;5066826;28;20476;-73
2024/01/30 03:53:43;;;;;;;10.07;6.60;;;1.30;99.90;;;;;;5071389;28;20150;-73
2024/01/30 03:56:09;;;;;;;11.93;6.75;;;1.20;99.90;;;;;;5072061;28;20036;-73
2024/01/30 03:58:35;;;;;;;10.52;6.90;;;1.20;99.90;;;;;;5066026;28;20090;-74
2024/01/30 04:01:00;;;;;;;11.35;6.47;;;1.30;99.90;;;;;;5072973;28;20052;-74
2024/01/30 04:03:26;;;;;;;10.48;7.05;;;1.30;99.90;;;;;;5068985;28;20060;-73
2024/01/30 04:05:52;;;;;;;8.90;6.28;;;1.30;99.90;;;;;;5064033;28;20096;-74
2024/01/30 04:08:18;;;;;;;11.82;6.50;;;1.30;99.90;;;;;;5071481;28;20052;-73
2024/01/30 04:10:44;;;;;;;11.10;6.28;;;1.30;99.90;;;;;;5071467;28;20039;-74
2024/01/30 04:13:10;;;;;;;11.82;7.50;;;1.30;99.90;;;;;;5070579;28;20484;-73
2024/01/30 04:15:35;;;;;;;12.25;6.85;;;1.30;99.90;;;;;;5049582;28;20024;-73
2024/01/30 04:18:01;;;;;;;10.95;6.78;;;1.30;99.90;;;;;;5072397;28;20564;-73
2024/01/30 04:20:26;;;;;;;11.98;6.40;;;1.30;99.90;;;;;;5071291;28;20184;-75
2024/01/30 04:22:52;;;;;;;20.27;7.22;;;1.30;99.90;;;;;;5071952;28;20028;-74
2024/01/30 04:25:18;;;;;;;9.40;6.53;;;1.20;99.90;;;;;;5065216;28;20063;-75
2024/01/30 04:27:43;;;;;;;11.70;6.18;;;1.20;99.90;;;;;;5071824;28;20101;-75
2024/01/30 04:30:10;;;;;;;9.50;6.20;;;1.10;99.90;;;;;;5072625;28;20025;-76
2024/01/30 04:32:36;;;;;;;9.20;6.80;;;1.10;99.90;;;;;;5080478;28;20025;-75
2024/01/30 04:35:02;;;;;;;8.13;5.38;;;1.00;99.90;;;;;;5071141;28;20056;-73
2024/01/30 04:37:28;;;;;;;8.90;5.85;;;1.00;99.90;;;;;;5061725;28;20032;-75
2024/01/30 04:39:53;;;;;;;13.95;7.13;;;0.90;99.90;;;;;;5077473;28;20021;-74
2024/01/30 04:42:19;;;;;;;12.35;6.35;;;0.90;99.90;;;;;;5072467;28;20457;-73
2024/01/30 04:44:45;;;;;;;11.75;6.95;;;0.90;99.90;;;;;;5070973;28;20021;-73
2024/01/30 04:47:11;;;;;;;11.43;6.63;;;0.90;99.90;;;;;;5071972;28;20033;-73
2024/01/30 04:49:41;;;;;;;11.10;7.15;;;0.80;99.90;;;;;;5064890;28;20150;-73
2024/01/30 04:52:07;;;;;;;15.47;8.07;;;0.80;99.90;;;;;;5069444;28;20029;-73
2024/01/30 04:54:33;;;;;;;17.20;8.63;;;0.80;99.90;;;;;;5070044;28;20032;-73
2024/01/30 04:56:59;;;;;;;12.50;6.60;;;0.80;99.90;;;;;;5071339;28;20115;-73
2024/01/30 04:59:25;;;;;;;11.65;7.10;;;0.80;99.90;;;;;;5052459;28;20103;-73
2024/01/30 05:01:50;;;;;;;14.63;8.30;;;0.80;99.90;;;;;;5072428;28;20028;-73
2024/01/30 05:04:16;;;;;;;13.75;6.95;;;0.80;99.90;;;;;;5071108;28;20374;-74
2024/01/30 05:06:41;;;;;;;11.43;7.20;;;0.80;99.90;;;;;;5052242;28;20058;-72
2024/01/30 05:09:07;;;;;;;12.05;7.40;;;0.80;99.90;;;;;;5072154;28;20031;-72
2024/01/30 05:11:38;;;;;;;11.15;7.18;;;0.90;99.90;;;;;;5070850;28;20021;-75
2024/01/30 05:14:03;;;;;;;12.02;6.80;;;0.90;99.90;;;;;;5067004;28;20363;-72
2024/01/30 05:16:29;;;;;;;12.77;7.32;;;1.00;99.90;;;;;;5063924;28;20035;-73
2024/01/30 05:18:55;;;;;;;10.68;6.70;;;1.10;99.90;;;;;;5071020;28;20066;-73
2024/01/30 05:21:20;;;;;;;14.00;7.32;;;1.10;99.90;;;;;;5070659;28;20123;-73
2024/01/30 05:23:46;;;;;;;12.55;6.75;;;1.00;99.90;;;;;;5066076;28;20367;-72
2024/01/30 05:26:11;;;;;;;12.35;7.28;;;1.00;99.90;;;;;;5068821;28;20128;-73
2024/01/30 05:28:37;;;;;;;13.82;6.53;;;1.00;99.90;;;;;;5081342;28;20086;-76
2024/01/30 05:31:03;;;;;;;13.30;6.68;;;0.90;99.90;;;;;;5071064;28;20024;-83
2024/01/30 05:33:29;;;;;;;10.98;6.47;;;0.90;99.90;;;;;;5061550;28;20035;-75
2024/01/30 05:35:54;;;;;;;16.45;6.85;;;0.90;99.90;;;;;;5066508;28;20028;-75
2024/01/30 05:38:20;;;;;;;13.85;6.90;;;0.90;99.90;;;;;;5070018;28;20384;-73
2024/01/30 05:40:46;;;;;;;12.15;6.82;;;0.90;99.90;;;;;;5065658;28;20415;-74
2024/01/30 05:43:12;;;;;;;12.80;7.72;;;0.90;99.90;;;;;;5067085;28;20032;-78
2024/01/30 05:45:38;;;;;;;13.45;7.40;;;0.90;99.90;;;;;;5062222;28;20477;-75
2024/01/30 05:48:04;;;;;;;12.02;7.82;;;0.90;99.90;;;;;;5066577;28;20028;-78
2024/01/30 05:50:30;;;;;;;12.82;7.82;;;1.00;99.90;;;;;;5068215;28;20091;-74
2024/01/30 05:52:56;;;;;;;11.30;6.80;;;1.00;99.90;;;;;;5067352;28;20477;-74
2024/01/30 05:55:21;;;;;;;11.38;6.70;;;1.10;99.90;;;;;;5068500;28;20381;-72
2024/01/30 05:57:47;;;;;;;10.98;7.43;;;1.10;99.90;;;;;;5067915;28;20063;-75
2024/01/30 06:00:13;;;;;;;14.10;6.55;;;1.00;99.90;;;;;;5068984;28;20465;-71
2024/01/30 06:02:38;;;;;;;12.05;7.15;;;1.00;99.90;;;;;;5068145;28;20032;-75
2024/01/30 06:05:04;;;;;;;14.05;7.22;;;1.00;99.90;;;;;;5068749;28;20027;-72
2024/01/30 06:07:30;;;;;;;14.73;7.55;;;0.90;99.90;;;;;;5068017;28;20039;-77
2024/01/30 06:09:56;;;;;;;14.20;7.57;;;0.90;99.90;;;;;;5068386;28;20067;-71
2024/01/30 06:12:21;;;;;;;12.48;7.80;;;0.90;99.90;;;;;;5068848;28;20036;-78
2024/01/30 06:14:47;;;;;;;15.43;8.32;;;0.90;99.90;;;;;;5067810;28;20052;-73
2024/01/30 06:17:13;;;;;;;11.45;7.43;;;0.90;99.90;;;;;;5069130;28;20031;-75
2024/01/30 06:19:39;;;;;;;13.38;8.05;;;0.80;99.90;;;;;;5067022;28;20420;-75
2024/01/30 06:22:05;;;;;;;17.20;8.75;;;0.80;99.90;;;;;;5068328;28;20021;-75
2024/01/30 06:24:30;;;;;;;14.45;8.48;;;0.80;99.90;;;;;;5062465;28;20029;-74
2024/01/30 06:26:56;;;;;;;12.98;8.07;;;0.80;99.90;;;;;;5068166;28;20048;-73
2024/01/30 06:29:22;;;;;;;13.05;8.43;;;0.80;99.90;;;;;;5068225;28;20028;-79
2024/01/30 06:31:47;;;;;;;15.63;8.68;;;0.80;99.90;;;;;;5070380;28;20037;-74
2024/01/30 06:34:13;;;;;;;14.77;8.32;;;0.80;99.90;;;;;;5070874;28;20017;-75
2024/01/30 06:36:39;;;;;;;12.32;8.05;;;0.80;99.90;;;;;;5068893;28;20090;-75
2024/01/30 06:39:05;;;;;;;14.70;9.15;;;0.70;99.90;;;;;;5068695;28;20016;-76
2024/01/30 06:41:31;;;;;;;13.30;8.27;;;0.70;99.90;;;;;;5045783;28;20068;-74
2024/01/30 06:43:56;;;;;;;14.15;8.93;;;0.70;99.90;;;;;;5051924;28;20060;-74
2024/01/30 06:46:22;;;;;;;17.80;8.60;;;0.70;99.90;;;;;;5069532;28;20108;-73
2024/01/30 06:48:48;;;;;;;13.95;8.27;;;0.70;99.90;;;;;;5068802;28;20028;-75
2024/01/30 06:51:13;;;;;;;15.27;8.15;;;0.70;99.90;;;;;;5067092;28;20397;-74
2024/01/30 06:53:39;;;;;;;13.05;8.10;;;0.60;99.90;;;;;;5060307;28;20024;-76
2024/01/30 06:56:05;;;;;;;13.82;8.68;;;0.60;99.90;;;;;;5068762;28;20560;-74
2024/01/30 06:58:30;;;;;;;14.48;7.50;;;0.60;99.90;;;;;;5065924;28;20465;-74
2024/01/30 07:00:56;;;;;;;13.32;7.82;;;0.70;99.90;;;;;;5063705;28;20020;-75
2024/01/30 07:03:22;;;;;;;16.65;8.15;;;0.70;99.90;;;;;;5069023;28;20033;-73
2024/01/30 07:05:48;;;;;;;12.80;7.88;;;0.70;99.90;;;;;;5068769;28;20111;-72
2024/01/30 07:08:17;;;;;;;13.35;8.63;;;0.80;99.90;;;;;;5070576;28;20048;-72
2024/01/30 07:10:45;;;;;;;15.65;8.50;;;0.80;99.90;;;;;;5068051;28;20069;-72
2024/01/30 07:13:11;;;;;;;16.73;9.05;;;0.80;99.90;;;;;;5050814;28;20545;-71
2024/01/30 07:15:37;;;;;;;16.05;8.57;;;0.80;99.90;;;;;;5067779;28;20021;-72
2024/01/30 07:18:04;;;;;;;14.82;8.25;;;0.80;99.90;;;;;;5059474;28;20036;-72
2024/01/30 07:20:31;;;;;;;12.48;8.10;;;0.80;99.90;;;;;;5066476;28;20021;-72
2024/01/30 07:23:00;;;;;;;13.75;8.55;;;0.90;99.90;;;;;;5067767;28;20032;-73
2024/01/30 07:25:26;;;;;;;14.32;8.45;;;0.90;99.90;;;;;;5067547;28;20040;-72
2024/01/30 07:27:53;;;;;;;14.60;8.30;;;1.10;99.90;;;;;;5056632;28;20575;-72
2024/01/30 07:30:19;;;;;;;13.13;7.30;;;1.20;99.90;;;;;;5068587;28;20095;-72
2024/01/30 07:32:46;;;;;;;12.80;7.03;;;1.20;99.90;;;;;;5068360;28;20054;-73
2024/01/30 07:35:12;;;;;;;14.65;7.75;;;1.30;99.90;;;;;;5060903;28;20108;-72
2024/01/30 07:37:37;;;;;;;12.27;7.68;;;1.40;99.90;;;;;;5068393;28;20068;-73
2024/01/30 07:40:04;;;;;;;12.52;7.55;;;1.50;99.90;;;;;;5057428;28;20052;-73
2024/01/30 07:42:29;;;;;;;12.13;7.22;;;1.50;99.90;;;;;;5065754;28;20036;-72
2024/01/30 07:44:55;;;;;;;11.07;7.03;;;1.50;99.90;;;;;;5050057;28;20078;-73
2024/01/30 07:47:21;;;;;;;19.70;10.32;;;1.50;99.90;;;;;;5068896;28;20029;-74
2024/01/30 07:49:46;;;;;;;16.95;9.20;;;1.50;99.90;;;;;;5067489;28;20365;-74
2024/01/30 07:52:12;;;;;;;15.20;8.07;;;1.60;99.90;;;;;;5062979;28;20021;-74
2024/01/30 07:54:41;;;;;;;15.43;8.63;;;1.60;99.90;;;;;;5059768;28;20120;-73
2024/01/30 07:57:07;;;;;;;13.52;8.50;;;1.70;99.90;;;;;;5069128;28;20043;-74
2024/01/30 07:59:32;;;;;;;14.27;8.60;;;1.80;99.90;;;;;;5067775;28;20020;-75
2024/01/30 08:01:58;;;;;;;13.15;8.57;;;1.90;99.90;;;;;;5057394;28;20032;-74
2024/01/30 08:04:24;;;;;;;15.00;8.07;;;1.90;99.90;;;;;;5069737;28;20089;-72
2024/01/30 08:06:49;;;;;;;15.00;9.15;;;2.00;99.90;;;;;;5072136;28;20021;-75
2024/01/30 08:09:15;;;;;;;14.60;8.85;;;2.00;99.90;;;;;;5077651;28;20028;-74
2024/01/30 08:11:41;;;;;;;14.95;9.10;;;2.10;99.90;;;;;;5072015;28;20082;-74
2024/01/30 08:14:06;;;;;;;12.68;8.75;;;2.20;99.90;;;;;;5071479;28;20051;-73
2024/01/30 08:16:32;;;;;;;12.45;7.95;;;2.30;99.90;;;;;;5069849;28;20047;-74
2024/01/30 08:18:57;;;;;;;12.20;7.07;;;2.40;99.90;;;;;;5066774;28;20409;-74
2024/01/30 08:21:24;;;;;;;13.45;7.82;;;2.50;99.90;;;;;;5069119;28;20029;-72
2024/01/30 08:23:49;;;;;;;15.68;9.07;;;2.60;99.90;;;;;;5071532;28;20449;-74
2024/01/30 08:26:15;;;;;;;16.48;8.55;;;2.70;99.90;;;;;;5060015;28;20046;-73
2024/01/30 08:28:41;;;;;;;15.85;8.25;;;2.90;99.90;;;;;;5069377;28;20449;-75
2024/01/30 08:31:06;;;;;;;15.23;8.75;;;3.00;99.90;;;;;;5072107;28;20017;-74
2024/01/30 08:33:32;;;;;;;14.75;9.10;;;3.20;99.90;;;;;;5066377;28;20021;-72
2024/01/30 08:35:57;;;;;;;18.65;9.02;;;3.30;99.90;;;;;;5067534;28;20103;-74
2024/01/30 08:38:24;;;;;;;18.35;10.10;;;3.40;99.90;;;;;;5070774;28;20024;-72
2024/01/30 08:40:50;;;;;;;17.00;9.63;;;3.50;99.90;;;;;;5061288;28;20093;-73
2024/01/30 08:43:15;;;;;;;20.08;10.77;;;3.70;99.90;;;;;;5071831;28;20021;-79
2024/01/30 08:45:41;;;;;;;15.38;9.45;;;3.90;99.90;;;;;;5073631;28;20028;-75
2024/01/30 08:48:08;;;;;;;17.83;10.30;;;4.00;99.90;;;;;;5070643;28;20068;-73
2024/01/30 08:50:34;;;;;;;16.13;9.07;;;4.10;99.90;;;;;;5069044;28;20020;-76
2024/01/30 08:53:00;;;;;;;18.10;9.95;;;4.30;99.90;;;;;;5065939;28;20032;-71
2024/01/30 08:55:25;;;;;;;20.55;10.77;;;4.40;99.90;;;;;;5070389;28;20453;-71
2024/01/30 08:57:52;;;;;;;13.35;8.88;;;4.50;99.90;;;;;;5072263;28;20343;-70
2024/01/30 09:00:18;;;;;;;13.90;9.05;;;4.50;99.90;;;;;;5072142;28;20016;-75
2024/01/30 09:02:43;;;;;;;13.38;8.85;;;4.50;99.90;;;;;;5063531;28;20112;-71
2024/01/30 09:05:09;;;;;;;13.90;8.93;;;4.60;99.90;;;;;;5070207;28;20334;-73
2024/01/30 09:07:34;;;;;;;16.63;9.35;;;4.60;99.90;;;;;;5075828;28;20053;-73
2024/01/30 09:10:00;;;;;;;15.05;8.70;;;4.70;99.90;;;;;;5071121;28;20078;-71
2024/01/30 09:12:25;;;;;;;13.45;9.27;;;4.80;99.90;;;;;;5070781;28;20112;-72
2024/01/30 09:14:51;;;;;;;14.68;8.43;;;4.90;99.90;;;;;;5069462;28;20024;-72
2024/01/30 09:17:17;;;;;;;11.82;8.30;;;4.90;99.90;;;;;;5069130;28;20103;-73
2024/01/30 09:19:42;;;;;;;15.93;8.85;;;5.00;99.90;;;;;;5057942;28;20456;-73
2024/01/30 09:22:08;;;;;;;12.55;8.38;;;5.10;99.90;;;;;;5060869;28;20125;-72
2024/01/30 09:24:33;;;;;;;11.90;7.30;;;5.30;99.90;;;;;;5069083;28;20020;-73
2024/01/30 09:26:59;;;;;;;12.27;8.18;;;;;;;;;;5060462;28;20048;-73
2024/01/30 09:29:26;;;;;;;11.55;7.93;;;;;;;;;;5069477;28;20465;-72
2024/01/30 09:31:52;;;;;;;11.27;7.03;;;;;;;;;;5070544;28;20078;-73
2024/01/30 09:34:18;;;;;;;14.43;7.82;;;6.10;99.90;;;;;;5062616;28;20032;-73
2024/01/30 09:36:43;;;;;;;11.43;7.60;;;6.10;99.90;;;;;;5069681;28;20111;-72
2024/01/30 09:39:09;;;;;;;13.60;7.85;;;6.20;99.90;;;;;;5067033;28;20032;-74
2024/01/30 09:41:51;;;;;;;12.43;8.27;;;6.30;99.90;;;;;;5044985;28;20097;-73
2024/01/30 09:44:17;;;;;;;15.85;8.57;;;6.40;99.90;;;;;;5050556;28;20078;-73
2024/01/30 09:46:46;;;;;;;15.30;9.30;;;6.60;99.90;;;;;;5069746;28;20277;-73
2024/01/30 09:49:13;;;;;;;14.50;9.48;;;6.70;99.90;;;;;;5069858;28;20033;-73
2024/01/30 09:51:40;;;;;;;14.88;9.02;;;6.80;99.90;;;;;;5068138;28;20163;-74
2024/01/30 09:54:08;;;;;;;13.02;8.85;;;7.00;99.90;;;;;;5060051;28;20124;-74
2024/01/30 09:56:33;;;;;;;13.80;9.05;;;7.10;99.90;;;;;;5051905;28;20058;-72
2024/01/30 09:58:59;;;;;;;11.13;9.00;;;7.20;99.90;;;;;;5069693;28;20473;-72
2024/01/30 10:01:25;;;;;;;12.88;8.52;;;7.30;99.90;;;;;;5069414;28;20056;-72
2024/01/30 10:03:54;;;;;;;16.73;8.93;;;7.40;99.90;;;;;;5070029;28;20108;-73
2024/01/30 10:06:21;;;;;;;17.90;9.43;;;7.60;99.90;;;;;;5069836;28;20033;-71
2024/01/30 10:08:46;;;;;;;13.35;9.52;;;7.80;99.90;;;;;;5074792;28;20021;-73
2024/01/30 10:11:12;;;;;;;14.27;9.50;;;7.90;99.90;;;;;;5068360;28;20283;-73
2024/01/30 10:13:39;;;;;;;13.88;9.20;;;8.00;99.90;;;;;;5062111;28;20035;-72
2024/01/30 10:16:06;;;;;;;17.70;9.35;;;8.00;99.90;;;;;;5069306;28;20449;-72
2024/01/30 10:18:32;;;;;;;18.15;9.35;;;8.10;99.90;;;;;;5050465;28;20111;-74
2024/01/30 10:20:59;;;;;;;17.52;10.07;;;8.20;99.90;;;;;;5059291;28;20598;-73
2024/01/30 10:23:24;;;;;;;18.38;10.45;;;8.30;99.90;;;;;;5068797;28;20028;-72
2024/01/30 10:25:52;;;;;;;21.95;11.63;;;8.50;99.90;;;;;;5069460;28;20127;-72
2024/01/30 10:28:17;;;;;;;16.48;10.57;;;8.50;99.90;;;;;;5068756;28;20489;-73
2024/01/30 10:30:43;;;;;;;19.33;11.38;;;8.60;99.90;;;;;;5068453;28;20117;-73
2024/01/30 10:33:09;;;;;;;19.85;10.95;;;8.60;99.90;;;;;;5068663;28;20868;-73
2024/01/30 10:35:35;;;;;;;15.82;11.18;;;8.70;99.90;;;;;;5061435;28;20103;-72
2024/01/30 10:38:00;;;;;;;16.83;9.98;;;8.80;99.90;;;;;;5068795;28;20040;-73
2024/01/30 10:40:28;;;;;;;18.73;9.77;;;8.90;99.90;;;;;;5058330;28;20425;-73
2024/01/30 10:42:55;;;;;;;16.13;10.07;;;9.00;99.90;;;;;;5068656;28;20054;-74
2024/01/30 10:45:22;;;;;;;14.27;10.32;;;9.10;99.90;;;;;;5069131;28;20115;-73
2024/01/30 10:47:50;;;;;;;15.02;9.98;;;9.10;99.90;;;;;;5068548;28;20397;-73
2024/01/30 10:50:16;;;;;;;15.60;9.20;;;9.20;99.90;;;;;;5067203;28;20025;-73
2024/01/30 10:52:42;;;;;;;13.27;9.43;;;9.20;99.90;;;;;;5061283;28;20158;-72
2024/01/30 10:55:08;;;;;;;14.20;9.60;;;9.30;99.90;;;;;;5060029;28;20044;-73
2024/01/30 10:57:37;;;;;;;16.17;9.32;;;9.30;99.90;;;;;;5068526;28;20074;-73
2024/01/30 11:00:15;;;;;;;15.18;9.02;;;9.40;99.90;;;;;;5063718;28;20044;-73
2024/01/30 11:02:43;;;;;;;14.43;8.85;;;9.60;99.90;;;;;;5060711;28;20373;-73
2024/01/30 11:05:09;;;;;;;15.15;8.73;;;9.70;99.90;;;;;;5068684;28;20016;-73
2024/01/30 11:07:35;;;;;;;16.10;9.27;;;9.70;99.90;;;;;;5062378;28;20345;-73
2024/01/30 11:10:05;;;;;;;13.30;9.27;;;9.80;99.90;;;;;;5064501;28;20038;-73
2024/01/30 11:12:34;;;;;;;;;;;9.80;99.90;;;;;;5068148;28;20044;-73
2024/01/30 11:15:07;;;;;;;12.32;8.50;;;9.90;99.90;;;;;;5068280;28;20338;-73
2024/01/30 11:17:52;;;;;;;14.25;8.98;;;10.00;99.90;;;;;;5065720;28;20123;-74
2024/01/30 11:20:20;;;;;;;14.57;8.68;;;10.10;99.90;;;;;;5065588;28;20066;-72
2024/01/30 11:22:47;;;;;;;17.95;9.90;;;10.20;99.90;;;;;;5061737;28;20048;-73
2024/01/30 11:25:17;;;;;;;14.07;9.48;;;10.30;99.90;;;;;;5050556;28;20029;-72
2024/01/30 11:27:43;;;;;;;13.38;8.20;;;;;;;;;;5059808;28;20061;-73
2024/01/30 11:30:09;;;;;;;16.88;9.68;;;;;;;;;;5068709;28;20050;-73
2024/01/30 11:32:35;;;;;;;17.35;9.60;;;;;;;;;;5067242;28;20024;-72
2024/01/30 11:35:06;;;;;;;15.07;9.43;;;10.80;99.90;;;;;;5061033;28;20012;-72
2024/01/30 11:37:37;;;;;;;15.70;9.65;;;10.80;99.90;;;;;;5063638;28;20079;-72
2024/01/30 11:40:04;;;;;;;13.48;9.20;;;10.70;99.90;;;;;;5072198;28;20025;-73
2024/01/30 11:42:30;;;;;;;15.70;9.85;;;10.80;99.90;;;;;;5072135;28;20409;-72
2024/01/30 11:44:56;;;;;;;15.10;9.70;;;10.80;99.90;;;;;;5070920;28;20413;-73
2024/01/30 11:47:22;;;;;;;15.25;9.82;;;10.90;99.90;;;;;;5072596;28;20131;-73
2024/01/30 11:49:48;;;;;;;16.58;9.85;;;11.00;99.90;;;;;;5065113;28;20029;-73
2024/01/30 11:52:14;;;;;;;16.27;9.98;;;11.00;99.90;;;;;;5071079;28;20104;-72
2024/01/30 11:54:40;;;;;;;16.33;10.63;;;11.10;99.90;;;;;;5068610;28;20055;-72
2024/01/30 11:57:06;;;;;;;18.73;10.60;;;11.20;99.90;;;;;;5070313;28;20082;-74
2024/01/30 11:59:31;;;;;;;14.80;9.85;;;11.20;99.90;;;;;;5071752;28;20036;-72
2024/01/30 12:01:57;;;;;;;15.25;9.77;;;11.30;99.90;;;;;;5072619;28;20056;-74
2024/01/30 12:04:22;;;;;;;15.65;9.82;;;11.40;99.90;;;;;;5083086;28;20036;-75
2024/01/30 12:06:51;;;;;;;20.70;10.05;;;11.40;99.90;;;;;;5085411;28;20028;-73
2024/01/30 12:09:17;;;;;;;13.13;9.20;;;11.50;99.90;;;;;;5094207;28;20024;-73
2024/01/30 12:11:46;;;;;;;19.83;10.25;;;11.50;99.90;;;;;;5092138;28;20036;-74
2024/01/30 12:14:12;;;;;;;19.15;10.88;;;11.60;99.90;;;;;;5078258;28;20009;-76
2024/01/30 12:16:38;;;;;;;16.25;10.18;;;11.70;99.90;;;;;;5066868;28;20098;-72
2024/01/30 12:19:04;;;;;;;17.13;9.75;;;11.70;99.90;;;;;;5071662;28;20024;-72
2024/01/30 12:21:30;;;;;;;18.98;10.35;;;11.70;99.90;;;;;;5061363;28;20031;-72
2024/01/30 12:23:59;;;;;;;16.15;10.88;;;11.70;99.90;;;;;;5071144;28;20107;-71
2024/01/30 12:26:26;;;;;;;16.52;10.27;;;11.80;99.90;;;;;;5063291;28;20128;-72
2024/01/30 12:28:55;;;;;;;17.95;10.32;;;11.80;99.90;;;;;;5066558;28;20099;-73
2024/01/30 12:31:27;;;;;;;17.75;10.63;;;11.80;99.90;;;;;;5066533;28;20460;-73
2024/01/30 12:33:53;;;;;;;15.18;10.07;;;11.90;99.90;;;;;;5070619;28;20368;-72
2024/01/30 12:36:19;;;;;;;17.13;10.18;;;11.90;99.90;;;;;;5071995;28;20038;-72
2024/01/30 12:38:44;;;;;;;15.07;9.50;;;11.90;99.90;;;;;;5069115;28;20652;-72
2024/01/30 12:41:10;;;;;;;17.80;10.30;;;12.00;99.90;;;;;;5054132;28;20032;-72
2024/01/30 12:43:36;;;;;;;16.83;9.50;;;12.00;99.90;;;;;;5070227;28;20105;-72
2024/01/30 12:46:03;;;;;;;17.63;9.40;;;12.10;99.90;;;;;;5070134;28;20027;-72
2024/01/30 12:48:29;;;;;;;19.50;10.45;;;12.20;99.90;;;;;;5070223;28;20367;-74
2024/01/30 12:50:55;;;;;;;21.17;10.48;;;12.30;99.90;;;;;;5069820;28;20540;-73
2024/01/30 12:53:21;;;;;;;21.98;10.00;;;12.40;99.90;;;;;;5052721;28;20024;-72
2024/01/30 12:55:47;;;;;;;20.67;10.15;;;12.50;99.90;;;;;;5070769;28;20016;-72
2024/01/30 12:58:13;;;;;;;15.30;9.20;;;12.50;99.90;;;;;;5065088;28;20024;-72
2024/01/30 13:00:38;;;;;;;20.70;9.48;;;12.60;99.90;;;;;;5070977;28;20146;-72
2024/01/30 13:03:04;;;;;;;16.15;9.93;;;12.60;99.90;;;;;;5070251;28;20060;-71
2024/01/30 13:05:30;;;;;;;17.40;9.75;;;12.60;99.90;;;;;;5070544;28;20035;-71